createdAt,value
2023-03-01T00:00:15.671Z,5.70
2023-03-01T00:03:01.138Z,5.70
2023-03-01T00:05:47.618Z,5.60
2023-03-01T00:08:33.876Z,5.60
2023-03-01T00:11:20.750Z,5.60
2023-03-01T00:14:06.060Z,5.60
2023-03-01T00:16:51.821Z,5.60
2023-03-01T00:19:37.424Z,5.60
2023-03-01T00:22:24.401Z,5.60
2023-03-01T00:25:10.390Z,5.60
2023-03-01T00:27:55.551Z,5.60
2023-03-01T00:30:41.360Z,5.50
2023-03-01T00:33:27.062Z,5.40
2023-03-01T00:36:14.817Z,5.40
2023-03-01T00:39:00.834Z,5.40
2023-03-01T00:41:46.190Z,5.30
2023-03-01T00:44:31.970Z,5.30
2023-03-01T00:47:17.971Z,5.20
2023-03-01T00:50:03.902Z,5.20
2023-03-01T00:52:53.001Z,5.20
2023-03-01T00:55:38.752Z,5.10
2023-03-01T00:58:25.344Z,5.10
2023-03-01T01:01:18.226Z,5.00
2023-03-01T01:04:09.055Z,5.00
2023-03-01T01:06:54.992Z,5.00
2023-03-01T01:09:40.991Z,4.90
2023-03-01T01:12:26.433Z,4.90
2023-03-01T01:15:14.728Z,4.90
2023-03-01T01:18:00.212Z,4.90
2023-03-01T01:20:46.439Z,4.80
2023-03-01T01:23:32.805Z,4.80
2023-03-01T01:26:20.091Z,4.80
2023-03-01T01:29:06.031Z,4.80
2023-03-01T01:31:51.924Z,4.80
2023-03-01T01:34:37.947Z,4.70
2023-03-01T01:37:23.876Z,4.70
2023-03-01T01:40:10.848Z,4.70
2023-03-01T01:42:56.162Z,4.70
2023-03-01T01:45:42.099Z,4.70
2023-03-01T01:48:41.239Z,4.70
2023-03-01T01:51:30.040Z,4.70
2023-03-01T01:54:19.798Z,4.70
2023-03-01T01:57:09.525Z,4.70
2023-03-01T01:59:57.382Z,4.60
2023-03-01T02:02:44.054Z,4.60
2023-03-01T02:05:54.964Z,4.60
2023-03-01T02:08:42.440Z,4.60
2023-03-01T02:11:28.492Z,4.60
2023-03-01T02:14:15.264Z,4.50
2023-03-01T02:17:00.647Z,4.50
2023-03-01T02:19:46.320Z,4.50
2023-03-01T02:22:32.610Z,4.40
2023-03-01T02:25:21.260Z,4.50
2023-03-01T02:28:18.520Z,4.50
2023-03-01T02:31:24.150Z,4.50
2023-03-01T02:34:12.556Z,4.50
2023-03-01T02:37:01.534Z,4.50
2023-03-01T02:39:49.485Z,4.40
2023-03-01T02:42:41.980Z,4.40
2023-03-01T02:45:27.835Z,4.40
2023-03-01T02:48:13.250Z,4.40
2023-03-01T02:51:06.546Z,4.40
2023-03-01T02:54:11.121Z,4.40
2023-03-01T02:56:57.119Z,4.40
2023-03-01T02:59:43.742Z,4.40
2023-03-01T03:02:39.790Z,4.40
2023-03-01T03:05:34.696Z,4.40
2023-03-01T03:08:25.124Z,4.30
2023-03-01T03:11:11.246Z,4.30
2023-03-01T03:13:57.157Z,4.30
2023-03-01T03:16:43.619Z,4.20
2023-03-01T03:19:29.343Z,4.30
2023-03-01T03:22:15.181Z,4.30
2023-03-01T03:25:00.793Z,4.30
2023-03-01T03:27:47.653Z,4.20
2023-03-01T03:30:33.514Z,4.20
2023-03-01T03:33:19.021Z,4.20
2023-03-01T03:36:05.972Z,4.20
2023-03-01T03:38:51.712Z,4.30
2023-03-01T03:41:37.279Z,4.30
2023-03-01T03:44:23.129Z,4.30
2023-03-01T03:47:08.704Z,4.40
2023-03-01T03:49:54.366Z,4.40
2023-03-01T03:52:40.104Z,4.40
2023-03-01T03:55:29.048Z,4.40
2023-03-01T03:58:14.880Z,4.40
2023-03-01T04:01:01.886Z,4.50
2023-03-01T04:03:47.829Z,4.50
2023-03-01T04:06:33.493Z,4.50
2023-03-01T04:09:19.059Z,4.50
2023-03-01T04:12:04.594Z,4.50
2023-03-01T04:14:50.098Z,4.50
2023-03-01T04:17:35.403Z,4.50
2023-03-01T04:20:26.252Z,4.50
2023-03-01T04:23:17.123Z,4.50
2023-03-01T04:26:03.043Z,4.60
2023-03-01T04:28:50.400Z,4.60
2023-03-01T04:31:36.331Z,4.60
2023-03-01T04:34:21.724Z,4.60
2023-03-01T04:37:07.406Z,4.60
2023-03-01T04:39:53.368Z,4.70
2023-03-01T04:42:38.941Z,4.70
2023-03-01T04:45:24.753Z,4.60
2023-03-01T04:48:10.517Z,4.70
2023-03-01T04:50:56.362Z,4.70
2023-03-01T04:53:42.402Z,4.70
2023-03-01T04:56:27.895Z,4.70
2023-03-01T04:59:14.120Z,4.70
2023-03-01T05:02:01.453Z,4.70
2023-03-01T05:04:46.897Z,4.70
2023-03-01T05:07:32.404Z,4.80
2023-03-01T05:10:17.920Z,4.80
2023-03-01T05:13:04.052Z,4.80
2023-03-01T05:15:55.409Z,4.80
2023-03-01T05:18:41.399Z,4.80
2023-03-01T05:21:27.064Z,4.80
2023-03-01T05:24:12.773Z,4.80
2023-03-01T05:26:58.198Z,4.90
2023-03-01T05:29:43.968Z,4.90
2023-03-01T05:32:33.047Z,5.00
2023-03-01T05:35:18.961Z,5.00
2023-03-01T05:38:04.616Z,5.00
2023-03-01T05:40:50.386Z,5.00
2023-03-01T05:43:35.812Z,5.00
2023-03-01T05:46:21.762Z,5.00
2023-03-01T05:49:07.503Z,5.00
2023-03-01T05:51:53.869Z,5.00
2023-03-01T05:54:39.634Z,5.00
2023-03-01T05:57:25.535Z,5.00
2023-03-01T06:00:11.515Z,5.00
2023-03-01T06:03:01.016Z,5.00
2023-03-01T06:05:46.488Z,5.00
2023-03-01T06:08:32.267Z,5.10
2023-03-01T06:11:17.872Z,5.10
2023-03-01T06:14:04.027Z,5.00
2023-03-01T06:16:49.940Z,5.10
2023-03-01T06:19:35.973Z,5.10
2023-03-01T06:22:21.585Z,5.10
2023-03-01T06:25:07.625Z,5.10
2023-03-01T06:27:53.588Z,5.10
2023-03-01T06:30:38.928Z,5.10
2023-03-01T06:33:25.329Z,5.20
2023-03-01T06:36:11.067Z,5.20
2023-03-01T06:38:57.922Z,5.20
2023-03-01T06:41:43.713Z,5.20
2023-03-01T06:44:30.032Z,5.20
2023-03-01T06:47:15.820Z,5.30
2023-03-01T06:50:02.572Z,5.30
2023-03-01T06:55:33.569Z,5.40
2023-03-01T06:58:19.081Z,5.40
2023-03-01T07:01:08.178Z,5.40
2023-03-01T07:03:53.789Z,5.40
2023-03-01T07:06:39.472Z,5.50
2023-03-01T07:09:25.264Z,5.50
2023-03-01T07:12:11.105Z,5.50
2023-03-01T07:14:56.800Z,5.60
2023-03-01T07:17:42.199Z,5.50
2023-03-01T07:20:27.536Z,5.60
2023-03-01T07:23:13.130Z,5.60
2023-03-01T07:25:58.900Z,5.70
2023-03-01T07:28:44.195Z,5.70
2023-03-01T07:31:29.735Z,5.80
2023-03-01T07:34:15.271Z,5.90
2023-03-01T07:37:00.962Z,6.00
2023-03-01T07:39:46.988Z,6.00
2023-03-01T07:42:32.242Z,6.10
2023-03-01T07:45:17.679Z,6.20
2023-03-01T07:48:03.551Z,6.20
2023-03-01T07:50:48.976Z,6.30
2023-03-01T07:53:35.095Z,6.30
2023-03-01T07:56:22.492Z,6.40
2023-03-01T07:59:08.073Z,6.50
2023-03-01T08:01:53.791Z,6.60
2023-03-01T08:04:39.628Z,6.60
2023-03-01T08:07:25.431Z,6.70
2023-03-01T08:10:11.621Z,6.80
2023-03-01T08:12:57.651Z,6.80
2023-03-01T08:15:43.434Z,6.90
2023-03-01T08:18:28.644Z,6.90
2023-03-01T08:21:16.043Z,6.90
2023-03-01T08:24:05.547Z,7.00
2023-03-01T08:26:50.959Z,7.00
2023-03-01T08:29:36.856Z,6.90
2023-03-01T08:32:22.736Z,7.00
2023-03-01T08:35:08.397Z,6.90
2023-03-01T08:37:53.965Z,7.00
2023-03-01T08:40:39.486Z,7.10
2023-03-01T08:43:26.460Z,7.20
2023-03-01T08:46:12.208Z,7.20
2023-03-01T08:48:57.668Z,7.20
2023-03-01T08:51:43.804Z,7.30
2023-03-01T08:54:29.920Z,7.20
2023-03-01T08:57:15.627Z,7.20
2023-03-01T09:00:00.964Z,7.30
2023-03-01T09:02:46.566Z,7.30
2023-03-01T09:05:32.740Z,7.30
2023-03-01T09:08:18.901Z,7.40
2023-03-01T09:11:05.023Z,7.40
2023-03-01T09:13:50.900Z,7.40
2023-03-01T09:16:37.309Z,7.40
2023-03-01T09:19:22.843Z,7.40
2023-03-01T09:22:08.512Z,7.40
2023-03-01T09:24:53.785Z,7.40
2023-03-01T09:27:41.478Z,7.40
2023-03-01T09:30:27.423Z,7.40
2023-03-01T09:33:15.610Z,7.40
2023-03-01T09:36:05.560Z,7.50
2023-03-01T09:38:53.073Z,7.60
2023-03-01T09:41:39.200Z,7.70
2023-03-01T09:44:38.368Z,7.80
2023-03-01T09:47:34.841Z,7.80
2023-03-01T09:50:21.159Z,7.90
2023-03-01T09:53:15.767Z,8.00
2023-03-01T09:56:06.305Z,8.00
2023-03-01T09:58:56.289Z,8.00
2023-03-01T10:01:48.218Z,8.00
2023-03-01T10:04:35.850Z,7.90
2023-03-01T10:07:45.672Z,7.90
2023-03-01T10:10:38.795Z,8.00
2023-03-01T10:13:27.397Z,7.90
2023-03-01T10:16:17.934Z,8.00
2023-03-01T10:19:04.610Z,8.00
2023-03-01T10:21:51.825Z,8.00
2023-03-01T10:24:37.937Z,8.00
2023-03-01T10:27:24.817Z,8.10
2023-03-01T10:30:49.755Z,8.00
2023-03-01T10:33:38.279Z,8.10
2023-03-01T10:36:24.614Z,8.20
2023-03-01T10:39:15.301Z,8.30
2023-03-01T10:42:01.499Z,8.30
2023-03-01T10:44:48.609Z,8.40
2023-03-01T10:47:34.301Z,8.40
2023-03-01T10:50:21.197Z,8.50
2023-03-01T10:53:18.220Z,8.50
2023-03-01T10:56:08.004Z,8.50
2023-03-01T10:59:04.920Z,8.50
2023-03-01T11:02:07.019Z,8.60
2023-03-01T11:05:17.100Z,8.60
2023-03-01T11:08:04.220Z,8.70
2023-03-01T11:10:50.006Z,8.70
2023-03-01T11:13:38.133Z,8.80
2023-03-01T11:16:28.967Z,8.80
2023-03-01T11:19:16.551Z,8.80
2023-03-01T11:22:03.919Z,8.80
2023-03-01T11:25:08.475Z,8.80
2023-03-01T11:27:57.863Z,8.80
2023-03-01T11:31:07.108Z,8.90
2023-03-01T11:34:17.026Z,9.00
2023-03-01T11:37:04.149Z,9.00
2023-03-01T11:40:13.129Z,8.90
2023-03-01T11:43:14.125Z,8.90
2023-03-01T11:46:02.808Z,8.90
2023-03-01T11:48:51.784Z,8.90
2023-03-01T11:51:52.164Z,8.90
2023-03-01T11:54:40.760Z,8.80
2023-03-01T11:57:42.276Z,8.70
2023-03-01T12:00:47.839Z,8.70
2023-03-01T12:03:52.701Z,8.70
2023-03-01T12:06:50.654Z,8.40
2023-03-01T12:09:45.117Z,8.70
2023-03-01T12:12:42.763Z,8.70
2023-03-01T12:15:34.072Z,8.70
2023-03-01T12:18:25.737Z,8.70
2023-03-01T12:21:31.402Z,8.70
2023-03-01T12:24:26.736Z,8.50
2023-03-01T12:27:27.341Z,8.20
2023-03-01T12:30:15.589Z,8.20
2023-03-01T12:33:14.384Z,8.00
2023-03-01T12:36:12.527Z,8.00
2023-03-01T12:38:58.200Z,7.90
2023-03-01T12:41:49.223Z,7.90
2023-03-01T12:44:51.037Z,7.90
2023-03-01T12:47:46.221Z,7.80
2023-03-01T12:50:43.483Z,7.80
2023-03-01T12:53:35.491Z,7.70
2023-03-01T12:56:25.107Z,7.70
2023-03-01T12:59:13.441Z,7.70
2023-03-01T13:02:13.381Z,7.60
2023-03-01T13:04:58.899Z,7.60
2023-03-01T13:07:44.528Z,7.50
2023-03-01T13:10:34.174Z,7.40
2023-03-01T13:13:20.780Z,7.40
2023-03-01T13:16:24.638Z,7.30
2023-03-01T13:19:16.803Z,7.30
2023-03-01T13:22:22.412Z,7.20
2023-03-01T13:25:16.116Z,7.20
2023-03-01T13:28:20.652Z,7.20
2023-03-01T13:31:10.459Z,7.20
2023-03-01T13:34:21.577Z,7.10
2023-03-01T13:37:09.810Z,7.10
2023-03-01T13:39:56.048Z,7.10
2023-03-01T13:42:45.198Z,7.00
2023-03-01T13:45:43.686Z,7.00
2023-03-01T13:48:31.124Z,6.90
2023-03-01T13:51:16.750Z,6.90
2023-03-01T13:54:03.076Z,7.00
2023-03-01T14:00:27.958Z,7.00
2023-03-01T14:03:15.283Z,7.00
2023-03-01T14:06:12.831Z,6.90
2023-03-01T14:09:04.390Z,6.90
2023-03-01T14:12:09.206Z,6.90
2023-03-01T14:14:57.844Z,6.80
2023-03-01T14:17:43.516Z,6.80
2023-03-01T14:20:39.442Z,6.80
2023-03-01T14:23:25.170Z,6.80
2023-03-01T14:26:13.141Z,6.80
2023-03-01T14:29:04.815Z,6.80
2023-03-01T14:31:53.774Z,6.80
2023-03-01T14:34:44.509Z,6.80
2023-03-01T14:37:35.032Z,6.90
2023-03-01T14:40:25.296Z,6.90
2023-03-01T14:43:13.093Z,6.90
2023-03-01T14:45:58.910Z,6.90
2023-03-01T14:48:44.842Z,6.90
2023-03-01T14:51:30.669Z,6.90
2023-03-01T14:54:41.146Z,6.80
2023-03-01T14:57:27.285Z,6.80
2023-03-01T15:00:17.712Z,6.80
2023-03-01T15:03:38.029Z,6.90
2023-03-01T15:06:24.401Z,6.90
2023-03-01T15:09:14.076Z,6.90
2023-03-01T15:11:59.319Z,6.80
2023-03-01T15:14:52.252Z,6.80
2023-03-01T15:17:43.532Z,6.80
2023-03-01T15:20:30.280Z,6.70
2023-03-01T15:23:18.910Z,6.70
2023-03-01T15:26:04.634Z,6.70
2023-03-01T15:28:51.415Z,6.60
2023-03-01T15:31:39.522Z,6.50
2023-03-01T15:34:24.947Z,6.60
2023-03-01T15:37:29.026Z,6.60
2023-03-01T15:40:32.288Z,6.70
2023-03-01T15:43:36.953Z,6.70
2023-03-01T15:46:31.170Z,6.60
2023-03-01T15:49:53.913Z,6.60
2023-03-01T15:52:41.843Z,6.60
2023-03-01T15:55:30.749Z,6.60
2023-03-01T15:58:18.527Z,6.50
2023-03-01T16:01:04.281Z,6.10
2023-03-01T16:03:49.896Z,6.00
2023-03-01T16:06:36.710Z,6.00
2023-03-01T16:09:25.929Z,5.90
2023-03-01T16:12:15.246Z,5.90
2023-03-01T16:15:00.486Z,6.00
2023-03-01T16:17:46.090Z,5.90
2023-03-01T16:20:39.235Z,5.90
2023-03-01T16:23:26.140Z,6.00
2023-03-01T16:26:11.348Z,5.90
2023-03-01T16:28:57.562Z,5.90
2023-03-01T16:31:43.052Z,5.90
2023-03-01T16:34:28.973Z,5.90
2023-03-01T16:37:14.202Z,6.00
2023-03-01T16:39:59.556Z,6.00
2023-03-01T16:42:45.682Z,6.00
2023-03-01T16:45:36.359Z,6.00
2023-03-01T16:48:21.931Z,6.00
2023-03-01T16:51:08.248Z,5.90
2023-03-01T16:53:53.890Z,5.90
2023-03-01T16:56:40.600Z,5.90
2023-03-01T16:59:26.163Z,5.90
2023-03-01T17:02:13.519Z,5.90
2023-03-01T17:04:58.826Z,5.90
2023-03-01T17:07:44.142Z,5.90
2023-03-01T17:10:29.878Z,5.90
2023-03-01T17:13:15.346Z,5.80
2023-03-01T17:16:00.904Z,5.80
2023-03-01T17:18:46.184Z,5.80
2023-03-01T17:21:32.138Z,5.80
2023-03-01T17:24:17.692Z,5.80
2023-03-01T17:27:03.370Z,5.80
2023-03-01T17:29:48.649Z,5.80
2023-03-01T17:32:34.409Z,5.70
2023-03-01T17:35:20.064Z,5.80
2023-03-01T17:38:06.768Z,5.70
2023-03-01T17:40:52.120Z,5.70
2023-03-01T17:43:37.717Z,5.70
2023-03-01T17:46:24.298Z,5.70
2023-03-01T17:49:09.991Z,5.70
2023-03-01T17:51:55.238Z,5.60
2023-03-01T17:54:40.768Z,5.60
2023-03-01T17:57:26.398Z,5.70
2023-03-01T18:00:13.388Z,5.70
2023-03-01T18:03:00.098Z,5.70
2023-03-01T18:05:45.386Z,5.60
2023-03-01T18:08:30.706Z,5.60
2023-03-01T18:11:16.797Z,5.60
2023-03-01T18:14:02.945Z,5.70
2023-03-01T18:16:48.628Z,5.60
2023-03-01T18:19:33.838Z,5.60
2023-03-01T18:22:19.089Z,5.50
2023-03-01T18:25:05.265Z,5.50
2023-03-01T18:27:50.871Z,5.50
2023-03-01T18:30:36.421Z,5.60
2023-03-01T18:33:22.167Z,5.50
2023-03-01T18:36:15.884Z,5.50
2023-03-01T18:39:05.404Z,5.50
2023-03-01T18:41:51.115Z,5.40
2023-03-01T18:44:36.818Z,5.40
2023-03-01T18:47:28.136Z,5.30
2023-03-01T18:50:14.776Z,5.40
2023-03-01T18:53:00.127Z,5.40
2023-03-01T18:55:45.448Z,5.40
2023-03-01T18:58:30.771Z,5.30
2023-03-01T19:01:17.431Z,5.30
2023-03-01T19:04:03.532Z,5.30
2023-03-01T19:06:48.965Z,5.20
2023-03-01T19:09:34.761Z,5.20
2023-03-01T19:12:20.368Z,5.20
2023-03-01T19:15:06.159Z,5.30
2023-03-01T19:17:53.137Z,5.30
2023-03-01T19:20:40.564Z,5.20
2023-03-01T19:23:26.116Z,5.30
2023-03-01T19:26:13.068Z,5.30
2023-03-01T19:28:58.914Z,5.30
2023-03-01T19:31:44.880Z,5.40
2023-03-01T19:34:30.332Z,5.40
2023-03-01T19:37:15.793Z,5.40
2023-03-01T19:40:01.343Z,5.30
2023-03-01T19:42:46.860Z,5.30
2023-03-01T19:45:33.707Z,5.30
2023-03-01T19:48:19.173Z,5.30
2023-03-01T19:51:04.540Z,5.30
2023-03-01T19:53:50.218Z,5.30
2023-03-01T19:56:35.852Z,5.20
2023-03-01T19:59:24.547Z,5.20
2023-03-01T20:02:12.206Z,5.20
2023-03-01T20:04:57.775Z,5.20
2023-03-01T20:07:44.670Z,5.20
2023-03-01T20:10:32.358Z,5.10
2023-03-01T20:13:21.078Z,5.10
2023-03-01T20:16:07.279Z,5.00
2023-03-01T20:18:53.848Z,5.00
2023-03-01T20:21:39.450Z,5.00
2023-03-01T20:24:24.778Z,4.90
2023-03-01T20:27:15.601Z,4.90
2023-03-01T20:30:00.990Z,4.90
2023-03-01T20:33:11.030Z,4.90
2023-03-01T20:35:56.407Z,4.90
2023-03-01T20:38:42.197Z,4.90
2023-03-01T20:41:28.688Z,4.90
2023-03-01T20:44:14.381Z,4.90
2023-03-01T20:50:27.974Z,5.50
2023-03-01T20:53:13.565Z,4.90
2023-03-01T20:56:06.560Z,4.90
2023-03-01T20:58:52.278Z,4.90
2023-03-01T21:01:42.174Z,4.80
2023-03-01T21:04:33.850Z,4.80
2023-03-01T21:07:19.293Z,4.80
2023-03-01T21:10:34.448Z,4.80
2023-03-01T21:13:20.105Z,4.80
2023-03-01T21:19:26.044Z,4.80
2023-03-01T21:22:16.205Z,4.70
2023-03-01T21:25:02.271Z,4.70
2023-03-01T21:27:47.533Z,4.70
2023-03-01T21:30:36.712Z,4.70
2023-03-01T21:33:23.329Z,4.80
2023-03-01T21:36:11.200Z,4.70
2023-03-01T21:38:58.879Z,4.80
2023-03-01T21:41:44.187Z,4.80
2023-03-01T21:44:30.545Z,4.80
2023-03-01T21:47:16.183Z,4.90
2023-03-01T21:50:02.038Z,4.90
2023-03-01T21:52:47.609Z,4.90
2023-03-01T21:55:34.304Z,4.90
2023-03-01T21:58:22.585Z,4.90
2023-03-01T22:01:09.551Z,5.00
2023-03-01T22:03:56.169Z,5.00
2023-03-01T22:06:43.376Z,5.00
2023-03-01T22:09:29.042Z,5.00
2023-03-01T22:12:14.912Z,4.90
2023-03-01T22:15:01.557Z,5.00
2023-03-01T22:17:47.139Z,5.00
2023-03-01T22:20:32.666Z,5.00
2023-03-01T22:23:18.016Z,5.00
2023-03-01T22:26:03.952Z,5.00
2023-03-01T22:28:49.332Z,5.00
2023-03-01T22:31:34.781Z,5.00
2023-03-01T22:34:20.546Z,5.00
2023-03-01T22:37:06.223Z,4.90
2023-03-01T22:39:51.930Z,4.90
2023-03-01T22:42:37.564Z,4.90
2023-03-01T22:45:22.876Z,4.80
2023-03-01T22:48:08.312Z,4.80
2023-03-01T22:50:53.725Z,4.90
2023-03-01T22:53:39.072Z,4.90
2023-03-01T22:56:29.091Z,5.00
2023-03-01T22:59:15.654Z,5.00
2023-03-01T23:02:01.248Z,5.00
2023-03-01T23:04:48.489Z,5.00
2023-03-01T23:07:33.730Z,5.00
2023-03-01T23:10:19.313Z,5.00
2023-03-01T23:13:04.964Z,5.00
2023-03-01T23:15:54.182Z,5.00
2023-03-01T23:18:39.513Z,5.00
2023-03-01T23:21:25.127Z,5.00
2023-03-01T23:24:10.800Z,5.00
2023-03-01T23:26:56.363Z,5.00
2023-03-01T23:29:42.539Z,5.00
2023-03-01T23:32:27.960Z,5.00
2023-03-01T23:35:13.928Z,5.00
2023-03-01T23:37:59.542Z,5.00
2023-03-01T23:40:45.044Z,5.10
2023-03-01T23:43:30.537Z,5.10
2023-03-01T23:46:16.815Z,5.00
2023-03-01T23:49:03.018Z,5.10
2023-03-01T23:51:49.489Z,5.10
2023-03-01T23:54:35.286Z,5.10
2023-03-01T23:57:20.713Z,5.00
